Time;durP1;ratioP1;P1;durP2;ratioP2;P2;SDS_P1;SDS_P2;PMS_P1;PMS_P2;Temp;Humidity;BMP_temperature;BMP_pressure;BME280_temperature;BME280_humidity;BME280_pressure;Samples;Min_cycle;Max_cycle;Signal;HPM_P1;HPM_P2
2021/11/21 00:01:21;;;;;;;44.13;20.67;;;7.40;99.90;;;;;;5098064;28;20070;-71
2021/11/21 00:03:49;;;;;;;36.72;18.48;;;7.50;99.90;;;;;;5098088;28;20024;-71
2021/11/21 00:06:18;;;;;;;43.40;20.45;;;7.50;99.90;;;;;;5096519;28;20024;-71
2021/11/21 00:08:47;;;;;;;43.08;21.27;;;7.50;99.90;;;;;;5098410;28;20107;-71
2021/11/21 00:11:15;;;;;;;40.20;18.63;;;7.50;99.90;;;;;;5097572;28;20354;-71
2021/11/21 00:13:43;;;;;;;41.50;19.67;;;7.50;99.90;;;;;;5098170;28;20416;-71
2021/11/21 00:16:11;;;;;;;40.15;19.15;;;7.50;99.90;;;;;;5097747;28;20293;-71
2021/11/21 00:18:39;;;;;;;38.78;19.15;;;7.50;99.90;;;;;;5097829;28;20416;-71
2021/11/21 00:21:07;;;;;;;38.47;19.52;;;7.50;99.90;;;;;;5097670;28;20028;-71
2021/11/21 00:23:34;;;;;;;42.67;19.60;;;7.50;99.90;;;;;;5098602;28;20047;-71
2021/11/21 00:26:02;;;;;;;41.20;19.15;;;7.50;99.90;;;;;;5097201;28;20419;-71
2021/11/21 00:28:29;;;;;;;41.58;19.23;;;7.50;99.90;;;;;;5098314;28;20077;-71
2021/11/21 00:30:57;;;;;;;42.00;18.67;;;7.50;99.90;;;;;;5098451;28;20024;-71
2021/11/21 00:33:25;;;;;;;42.35;19.60;;;7.50;99.90;;;;;;5097965;28;20045;-71
2021/11/21 00:35:52;;;;;;;41.90;18.73;;;7.50;99.90;;;;;;5097973;28;20024;-71
2021/11/21 00:38:20;;;;;;;40.25;19.00;;;7.50;99.90;;;;;;5098083;28;20027;-71
2021/11/21 00:40:48;;;;;;;36.40;17.95;;;7.50;99.90;;;;;;5097095;28;20363;-71
2021/11/21 00:43:16;;;;;;;40.70;19.65;;;7.50;99.90;;;;;;5096345;28;20020;-71
2021/11/21 00:45:43;;;;;;;41.08;19.52;;;7.40;99.90;;;;;;5095940;28;20383;-71
2021/11/21 00:48:11;;;;;;;34.35;16.73;;;7.50;99.90;;;;;;5095887;28;20119;-71
2021/11/21 00:50:39;;;;;;;43.13;19.00;;;7.40;99.90;;;;;;5097457;28;20024;-71
2021/11/21 00:53:08;;;;;;;44.88;19.35;;;7.40;99.90;;;;;;5097653;28;20024;-71
2021/11/21 00:55:48;;;;;;;39.20;17.35;;;7.40;99.90;;;;;;5095402;28;20505;-71
2021/11/21 00:58:17;;;;;;;41.90;19.33;;;7.40;99.90;;;;;;5097348;28;20024;-71
2021/11/21 01:00:49;;;;;;;47.28;21.33;;;7.40;99.90;;;;;;5097674;28;20431;-71
2021/11/21 01:03:21;;;;;;;39.67;18.67;;;7.40;99.90;;;;;;5096600;28;20031;-71
2021/11/21 01:05:50;;;;;;;40.10;18.55;;;7.30;99.90;;;;;;5097608;28;20047;-71
2021/11/21 01:08:18;;;;;;;40.35;18.83;;;7.30;99.90;;;;;;5097557;28;20020;-71
2021/11/21 01:10:49;;;;;;;38.83;18.10;;;7.30;99.90;;;;;;5098158;28;20447;-71
2021/11/21 01:13:17;;;;;;;44.17;19.20;;;7.20;99.90;;;;;;5097879;28;20024;-71
2021/11/21 01:15:45;;;;;;;38.78;17.35;;;7.20;99.90;;;;;;5097502;28;20099;-71
2021/11/21 01:18:13;;;;;;;41.20;17.73;;;7.20;99.90;;;;;;5097298;28;20019;-71
2021/11/21 01:20:42;;;;;;;42.13;19.08;;;7.20;99.90;;;;;;5096524;28;20024;-70
2021/11/21 01:23:15;;;;;;;46.67;19.30;;;7.20;99.90;;;;;;5095506;28;20404;-71
2021/11/21 01:25:44;;;;;;;43.67;18.98;;;7.10;99.90;;;;;;5095454;28;20025;-71
2021/11/21 01:28:12;;;;;;;46.10;19.95;;;7.10;99.90;;;;;;5095548;28;20051;-71
2021/11/21 01:30:40;;;;;;;48.47;19.50;;;7.10;99.90;;;;;;5096981;28;20024;-71
2021/11/21 01:33:08;;;;;;;45.45;19.23;;;7.10;99.90;;;;;;5097057;28;20110;-71
2021/11/21 01:35:36;;;;;;;39.53;17.67;;;7.10;99.90;;;;;;5096676;28;20027;-71
2021/11/21 01:38:05;;;;;;;39.20;18.60;;;7.10;99.90;;;;;;5095747;28;20334;-71
2021/11/21 01:40:34;;;;;;;49.00;20.70;;;7.10;99.90;;;;;;5097324;28;20020;-71
2021/11/21 01:43:02;;;;;;;44.47;19.23;;;7.10;99.90;;;;;;5097361;28;20020;-71
2021/11/21 01:45:31;;;;;;;43.40;18.40;;;7.10;99.90;;;;;;5101304;28;20042;-71
2021/11/21 01:48:00;;;;;;;47.22;18.45;;;7.10;99.90;;;;;;5101823;28;20020;-71
2021/11/21 01:50:34;;;;;;;41.33;18.23;;;7.20;99.90;;;;;;5101202;28;20111;-71
2021/11/21 01:53:03;;;;;;;38.13;17.48;;;7.10;99.90;;;;;;5101312;28;20302;-71
2021/11/21 01:55:31;;;;;;;51.10;19.60;;;7.20;99.90;;;;;;5100887;28;20104;-71
2021/11/21 01:57:59;;;;;;;45.80;17.85;;;7.20;99.90;;;;;;5100495;28;20455;-71
2021/11/21 02:00:30;;;;;;;49.47;19.20;;;7.20;99.90;;;;;;5099073;28;20031;-71
2021/11/21 02:02:58;;;;;;;41.85;17.90;;;7.20;99.90;;;;;;5100148;28;20020;-71
2021/11/21 02:05:26;;;;;;;46.67;18.77;;;7.20;99.90;;;;;;5100540;28;20020;-71
2021/11/21 02:07:54;;;;;;;48.92;19.33;;;7.20;99.90;;;;;;5100562;28;20111;-71
2021/11/21 02:10:23;;;;;;;46.92;18.63;;;7.10;99.90;;;;;;5099906;28;20421;-71
2021/11/21 02:12:52;;;;;;;46.42;18.85;;;7.20;99.90;;;;;;5098844;28;20028;-71
2021/11/21 02:15:24;;;;;;;45.42;17.80;;;7.10;99.90;;;;;;5099815;28;20107;-71
2021/11/21 02:17:53;;;;;;;46.30;18.67;;;7.10;99.90;;;;;;5100489;28;20016;-71
2021/11/21 02:20:26;;;;;;;38.50;16.88;;;7.10;99.90;;;;;;5101177;28;20099;-71
2021/11/21 02:22:53;;;;;;;40.53;16.80;;;7.10;99.90;;;;;;5101171;28;20028;-71
2021/11/21 02:25:21;;;;;;;46.10;18.27;;;7.10;99.90;;;;;;5100867;28;20020;-71
2021/11/21 02:27:48;;;;;;;46.80;17.63;;;7.00;99.90;;;;;;5100883;28;20093;-71
2021/11/21 02:30:15;;;;;;;43.72;18.23;;;7.10;99.90;;;;;;5099591;28;20028;-71
2021/11/21 02:32:52;;;;;;;47.05;17.75;;;7.00;99.90;;;;;;5100437;28;20031;-71
2021/11/21 02:35:21;;;;;;;44.60;17.52;;;7.00;99.90;;;;;;5100832;28;20312;-71
2021/11/21 02:37:51;;;;;;;55.05;18.80;;;7.10;99.90;;;;;;5100039;28;20020;-71
2021/11/21 02:40:20;;;;;;;45.30;18.50;;;7.00;99.90;;;;;;5099854;28;20039;-71
2021/11/21 02:42:48;;;;;;;40.53;16.92;;;7.10;99.90;;;;;;5099823;28;20024;-71
2021/11/21 02:45:19;;;;;;;37.53;16.50;;;7.00;99.90;;;;;;5098204;28;20024;-71
2021/11/21 02:47:47;;;;;;;40.45;17.67;;;7.00;99.90;;;;;;5099783;28;20031;-71
2021/11/21 02:50:17;;;;;;;45.42;17.83;;;7.10;99.90;;;;;;5099954;28;20320;-71
2021/11/21 02:52:46;;;;;;;39.38;15.52;;;7.10;99.90;;;;;;5099134;28;20027;-71
2021/11/21 02:55:15;;;;;;;42.47;17.17;;;7.10;99.90;;;;;;5097892;28;20040;-71
2021/11/21 02:57:44;;;;;;;38.72;15.07;;;7.10;99.90;;;;;;5099801;28;20297;-71
2021/11/21 03:00:15;;;;;;;36.42;15.52;;;7.10;99.90;;;;;;5100595;28;20020;-71
2021/11/21 03:02:45;;;;;;;36.55;15.18;;;7.10;99.90;;;;;;5100169;28;20103;-70
2021/11/21 03:05:15;;;;;;;36.92;15.25;;;7.10;99.90;;;;;;5098680;28;20028;-71
2021/11/21 03:07:43;;;;;;;37.17;15.98;;;7.10;99.90;;;;;;5100058;28;20028;-71
2021/11/21 03:10:12;;;;;;;34.88;15.15;;;7.10;99.90;;;;;;5099898;28;20431;-71
2021/11/21 03:12:40;;;;;;;37.58;15.40;;;7.10;99.90;;;;;;5100267;28;20052;-71
2021/11/21 03:15:07;;;;;;;30.08;13.38;;;7.10;99.90;;;;;;5098895;28;20298;-71
2021/11/21 03:17:36;;;;;;;35.17;14.52;;;7.10;99.90;;;;;;5099200;28;20021;-71
2021/11/21 03:20:04;;;;;;;32.92;14.13;;;7.10;99.90;;;;;;5098745;28;20051;-71
2021/11/21 03:22:32;;;;;;;29.35;14.10;;;7.10;99.90;;;;;;5097443;28;20089;-71
2021/11/21 03:24:59;;;;;;;32.63;14.07;;;7.10;99.90;;;;;;5099147;28;20052;-72
2021/11/21 03:27:27;;;;;;;40.50;16.52;;;7.10;99.90;;;;;;5098999;28;20016;-71
2021/11/21 03:29:54;;;;;;;36.13;14.98;;;7.10;99.90;;;;;;5098647;28;20290;-71
2021/11/21 03:32:22;;;;;;;34.78;14.00;;;7.10;99.90;;;;;;5098402;28;20027;-71
2021/11/21 03:34:50;;;;;;;33.72;15.00;;;7.20;99.90;;;;;;5097636;28;20073;-71
2021/11/21 03:37:18;;;;;;;37.78;15.35;;;7.20;99.90;;;;;;5099194;28;20412;-70
2021/11/21 03:39:45;;;;;;;31.77;12.73;;;7.10;99.90;;;;;;5099333;28;20030;-71
2021/11/21 03:42:13;;;;;;;37.33;15.63;;;7.10;99.90;;;;;;5099642;28;20020;-71
2021/11/21 03:44:40;;;;;;;39.50;15.98;;;7.10;99.90;;;;;;5099695;28;20100;-71
2021/11/21 03:47:09;;;;;;;39.38;15.85;;;7.10;99.90;;;;;;5099024;28;20020;-71
2021/11/21 03:49:37;;;;;;;38.03;16.27;;;7.10;99.90;;;;;;5099139;28;20024;-70
2021/11/21 03:52:05;;;;;;;36.08;14.98;;;7.10;99.90;;;;;;5098751;28;20429;-71
2021/11/21 03:54:33;;;;;;;35.30;15.32;;;7.10;99.90;;;;;;5097713;28;20036;-71
2021/11/21 03:57:01;;;;;;;39.78;15.73;;;7.10;99.90;;;;;;5097840;28;20067;-71
2021/11/21 03:59:28;;;;;;;42.53;16.48;;;7.10;99.90;;;;;;5098446;28;20023;-71
2021/11/21 04:01:58;;;;;;;33.13;14.75;;;7.10;99.90;;;;;;5098339;28;20107;-71
2021/11/21 04:04:28;;;;;;;36.63;15.35;;;7.10;99.90;;;;;;5098460;28;20392;-71
2021/11/21 04:06:55;;;;;;;37.33;14.73;;;7.10;99.90;;;;;;5097539;28;20028;-71
2021/11/21 04:09:23;;;;;;;33.80;13.45;;;7.10;99.90;;;;;;5098303;28;20395;-71
2021/11/21 04:11:52;;;;;;;35.33;14.77;;;7.10;99.90;;;;;;5098154;28;20031;-71
2021/11/21 04:14:19;;;;;;;38.15;16.08;;;7.10;99.90;;;;;;5097553;28;20027;-71
2021/11/21 04:16:48;;;;;;;39.08;15.77;;;7.10;99.90;;;;;;5097304;28;20057;-71
2021/11/21 04:19:15;;;;;;;42.78;17.77;;;7.10;99.90;;;;;;5098420;28;20408;-71
2021/11/21 04:21:43;;;;;;;42.20;16.85;;;7.10;99.90;;;;;;5098347;28;20020;-71
2021/11/21 04:24:13;;;;;;;45.47;18.23;;;7.10;99.90;;;;;;5097381;28;20027;-71
2021/11/21 04:26:43;;;;;;;43.72;17.55;;;7.10;99.90;;;;;;5098126;28;20032;-71
2021/11/21 04:29:12;;;;;;;43.22;17.30;;;7.10;99.90;;;;;;5098434;28;20085;-71
2021/11/21 04:31:40;;;;;;;46.17;17.27;;;7.10;99.90;;;;;;5097581;28;20451;-71
2021/11/21 04:34:07;;;;;;;45.78;17.65;;;7.10;99.90;;;;;;5097385;28;20324;-71
2021/11/21 04:36:35;;;;;;;47.15;16.70;;;7.10;99.90;;;;;;5095980;28;20047;-71
2021/11/21 04:39:04;;;;;;;38.78;15.88;;;7.10;99.90;;;;;;5097141;28;20016;-71
2021/11/21 04:41:32;;;;;;;37.85;16.73;;;7.10;99.90;;;;;;5097149;28;20012;-71
2021/11/21 04:44:02;;;;;;;43.03;17.23;;;7.10;99.90;;;;;;5097583;28;20020;-71
2021/11/21 04:46:32;;;;;;;39.97;17.10;;;7.20;99.90;;;;;;5097001;28;20510;-71
2021/11/21 04:48:59;;;;;;;37.78;16.30;;;7.20;99.90;;;;;;5097724;28;20024;-71
2021/11/21 04:51:27;;;;;;;39.58;14.93;;;7.10;99.90;;;;;;5097826;28;20031;-71
2021/11/21 04:53:54;;;;;;;35.55;14.18;;;7.10;99.90;;;;;;5098178;28;20047;-71
2021/11/21 04:56:23;;;;;;;38.13;15.40;;;7.20;99.90;;;;;;5098295;28;20028;-70
2021/11/21 04:58:51;;;;;;;34.60;15.00;;;7.20;99.90;;;;;;5097876;28;20027;-71
2021/11/21 05:01:19;;;;;;;32.88;14.38;;;7.10;99.90;;;;;;5098019;28;20095;-70
2021/11/21 05:03:47;;;;;;;34.83;14.40;;;7.10;99.90;;;;;;5097457;28;20056;-71
2021/11/21 05:06:14;;;;;;;34.17;15.23;;;7.10;99.90;;;;;;5097601;28;20020;-71
2021/11/21 05:08:41;;;;;;;39.72;15.45;;;7.10;99.90;;;;;;5097267;28;20424;-71
2021/11/21 05:11:09;;;;;;;34.97;15.05;;;7.10;99.90;;;;;;5097248;28;20019;-71
2021/11/21 05:13:37;;;;;;;34.88;15.57;;;7.10;99.90;;;;;;5096683;28;20017;-71
2021/11/21 05:16:04;;;;;;;37.83;15.70;;;7.10;99.90;;;;;;5096609;28;20028;-71
2021/11/21 05:18:32;;;;;;;35.25;15.63;;;7.10;99.90;;;;;;5096665;28;20039;-71
2021/11/21 05:20:59;;;;;;;36.75;16.10;;;7.10;99.90;;;;;;5095442;28;20320;-71
2021/11/21 05:23:27;;;;;;;35.67;13.65;;;7.10;99.90;;;;;;5095723;28;20436;-71
2021/11/21 05:25:55;;;;;;;33.65;14.80;;;7.10;99.90;;;;;;5095468;28;20036;-71
2021/11/21 05:28:22;;;;;;;32.85;15.30;;;7.10;99.90;;;;;;5096697;28;20108;-71
2021/11/21 05:30:50;;;;;;;36.08;14.88;;;7.20;99.90;;;;;;5097437;28;20072;-71
2021/11/21 05:33:18;;;;;;;31.13;13.30;;;7.20;99.90;;;;;;5097572;28;20115;-71
2021/11/21 05:35:46;;;;;;;31.90;12.88;;;7.20;99.90;;;;;;5097445;28;20320;-71
2021/11/21 05:38:14;;;;;;;38.55;16.33;;;7.20;99.90;;;;;;5097926;28;20020;-71
2021/11/21 05:40:41;;;;;;;31.02;14.85;;;7.20;99.90;;;;;;5097863;28;20074;-71
2021/11/21 05:43:09;;;;;;;35.90;15.45;;;7.20;99.90;;;;;;5096365;28;20024;-71
2021/11/21 05:45:37;;;;;;;31.90;14.45;;;7.20;99.90;;;;;;5096648;28;20359;-71
2021/11/21 05:48:05;;;;;;;33.17;14.85;;;7.20;99.90;;;;;;5096614;28;20319;-71
2021/11/21 05:50:33;;;;;;;33.78;14.93;;;7.20;99.90;;;;;;5096834;28;20025;-71
2021/11/21 05:53:00;;;;;;;31.75;14.82;;;7.20;99.90;;;;;;5096955;28;20059;-71
2021/11/21 05:55:28;;;;;;;26.35;12.82;;;7.20;99.90;;;;;;5095967;28;20119;-71
2021/11/21 05:57:55;;;;;;;31.45;14.00;;;7.20;99.90;;;;;;5096250;28;20016;-71
2021/11/21 06:00:26;;;;;;;29.83;13.85;;;7.20;99.90;;;;;;5096831;28;20016;-71
2021/11/21 06:02:55;;;;;;;26.88;12.40;;;7.20;99.90;;;;;;5096251;28;20052;-71
2021/11/21 06:05:23;;;;;;;24.02;10.52;;;7.20;99.90;;;;;;5095466;28;20035;-71
2021/11/21 06:07:50;;;;;;;24.90;12.93;;;7.20;99.90;;;;;;5097704;28;20031;-71
2021/11/21 06:10:18;;;;;;;22.92;11.27;;;7.20;99.90;;;;;;5096255;28;20315;-71
2021/11/21 06:12:46;;;;;;;28.38;12.23;;;7.20;99.90;;;;;;5097595;28;20081;-71
2021/11/21 06:15:13;;;;;;;23.23;10.32;;;7.20;99.90;;;;;;5097137;28;20028;-71
2021/11/21 06:17:43;;;;;;;25.25;11.23;;;7.20;99.90;;;;;;5097600;28;20465;-71
2021/11/21 06:20:11;;;;;;;25.52;12.43;;;7.20;99.90;;;;;;5096012;28;20021;-70
2021/11/21 06:22:39;;;;;;;27.35;12.63;;;7.20;99.90;;;;;;5097000;28;20023;-71
2021/11/21 06:25:07;;;;;;;24.65;10.40;;;7.20;99.90;;;;;;5094994;28;20024;-71
2021/11/21 06:27:35;;;;;;;26.73;13.07;;;7.20;99.90;;;;;;5096003;28;20415;-71
2021/11/21 06:30:04;;;;;;;26.42;11.25;;;7.20;99.90;;;;;;5095024;28;20024;-71
2021/11/21 06:32:32;;;;;;;25.85;12.85;;;7.20;99.90;;;;;;5098893;28;20027;-71
2021/11/21 06:35:00;;;;;;;30.02;13.20;;;7.20;99.90;;;;;;5099953;28;20020;-71
2021/11/21 06:37:28;;;;;;;28.05;12.50;;;7.20;99.90;;;;;;5099454;28;20318;-71
2021/11/21 06:39:55;;;;;;;27.70;12.82;;;7.20;99.90;;;;;;5100056;28;20339;-71
2021/11/21 06:42:23;;;;;;;27.90;12.98;;;7.20;99.90;;;;;;5099393;28;20051;-71
2021/11/21 06:44:51;;;;;;;29.02;13.05;;;7.10;99.90;;;;;;5100293;28;20103;-71
2021/11/21 06:47:19;;;;;;;29.90;11.98;;;7.10;99.90;;;;;;5100221;28;20023;-71
2021/11/21 06:49:46;;;;;;;27.63;12.88;;;7.10;99.90;;;;;;5100948;28;20285;-71
2021/11/21 06:52:15;;;;;;;30.65;13.88;;;7.10;99.90;;;;;;5100407;28;20104;-71
2021/11/21 06:54:43;;;;;;;30.95;12.23;;;7.10;99.90;;;;;;5100161;28;20040;-71
2021/11/21 06:57:11;;;;;;;30.52;13.95;;;7.10;99.90;;;;;;5098913;28;20038;-71
2021/11/21 06:59:39;;;;;;;32.55;13.32;;;7.10;99.90;;;;;;5100732;28;20016;-71
2021/11/21 07:02:07;;;;;;;28.80;12.57;;;7.10;99.90;;;;;;5099403;28;20358;-71
2021/11/21 07:04:34;;;;;;;29.85;13.88;;;7.10;99.90;;;;;;5099552;28;20023;-71
2021/11/21 07:07:07;;;;;;;26.33;12.57;;;7.10;99.90;;;;;;5098916;28;20020;-71
2021/11/21 07:09:35;;;;;;;30.02;13.35;;;7.10;99.90;;;;;;5099299;28;20024;-71
2021/11/21 07:12:04;;;;;;;32.80;13.73;;;7.10;99.90;;;;;;5098821;28;20111;-70
2021/11/21 07:14:31;;;;;;;32.30;13.88;;;7.10;99.90;;;;;;5098818;28;20028;-71
2021/11/21 07:16:59;;;;;;;28.05;13.18;;;7.10;99.90;;;;;;5098700;28;20020;-71
2021/11/21 07:19:27;;;;;;;28.15;13.05;;;7.10;99.90;;;;;;5097783;28;20024;-70
2021/11/21 07:21:56;;;;;;;28.73;12.20;;;7.10;99.90;;;;;;5098977;28;20054;-70
2021/11/21 07:24:23;;;;;;;25.55;11.48;;;7.10;99.90;;;;;;5098507;28;20016;-75
2021/11/21 07:26:51;;;;;;;25.25;10.82;;;7.10;99.90;;;;;;5099761;28;20028;-75
2021/11/21 07:29:20;;;;;;;24.50;11.02;;;7.10;99.90;;;;;;5098557;28;20103;-75
2021/11/21 07:31:47;;;;;;;26.52;11.63;;;7.10;99.90;;;;;;5099641;28;20031;-76
2021/11/21 07:34:15;;;;;;;24.98;10.90;;;7.10;99.90;;;;;;5098274;28;20020;-75
2021/11/21 07:36:42;;;;;;;24.45;10.75;;;7.10;99.90;;;;;;5098006;28;20031;-76
2021/11/21 07:39:09;;;;;;;21.75;10.85;;;7.20;99.90;;;;;;5098297;28;20027;-75
2021/11/21 07:41:37;;;;;;;22.45;10.60;;;7.20;99.90;;;;;;5096715;28;20024;-76
2021/11/21 07:44:07;;;;;;;22.48;10.73;;;7.20;99.90;;;;;;5098210;28;20016;-76
2021/11/21 07:46:34;;;;;;;22.23;10.25;;;7.20;99.90;;;;;;5097123;28;20498;-75
2021/11/21 07:49:02;;;;;;;22.77;10.43;;;7.20;99.90;;;;;;5097889;28;20103;-75
2021/11/21 07:51:29;;;;;;;20.25;9.57;;;7.20;99.90;;;;;;5096888;28;20169;-76
2021/11/21 07:53:56;;;;;;;19.83;9.18;;;7.20;99.90;;;;;;5097822;28;20115;-76
2021/11/21 07:56:24;;;;;;;17.15;8.77;;;7.20;99.90;;;;;;5096718;28;20032;-76
2021/11/21 07:58:52;;;;;;;19.73;8.85;;;7.20;99.90;;;;;;5098224;28;20016;-76
2021/11/21 08:01:20;;;;;;;19.27;9.18;;;7.20;99.90;;;;;;5097638;28;20020;-76
2021/11/21 08:03:47;;;;;;;18.23;8.63;;;7.20;99.90;;;;;;5099010;28;20099;-75
2021/11/21 08:06:15;;;;;;;15.52;6.88;;;7.20;99.90;;;;;;5097545;28;20024;-77
2021/11/21 08:08:43;;;;;;;16.63;7.68;;;7.20;99.90;;;;;;5098728;28;20025;-75
2021/11/21 08:11:11;;;;;;;16.33;8.43;;;7.20;99.90;;;;;;5098642;28;20024;-72
2021/11/21 08:13:40;;;;;;;16.33;7.05;;;7.30;99.90;;;;;;5099001;28;20095;-71
2021/11/21 08:16:07;;;;;;;13.60;6.40;;;7.30;99.90;;;;;;5098962;28;20031;-74
2021/11/21 08:18:35;;;;;;;12.43;6.13;;;7.30;99.90;;;;;;5097943;28;20427;-74
2021/11/21 08:21:02;;;;;;;11.05;6.03;;;7.40;99.90;;;;;;5097985;28;20396;-75
2021/11/21 08:23:30;;;;;;;16.08;6.80;;;7.40;99.90;;;;;;5096552;28;20020;-75
2021/11/21 08:25:58;;;;;;;14.10;6.53;;;7.40;99.90;;;;;;5096302;28;20115;-72
2021/11/21 08:28:25;;;;;;;12.07;6.47;;;7.40;99.90;;;;;;5097575;28;20016;-72
2021/11/21 08:30:54;;;;;;;13.10;6.38;;;7.50;99.90;;;;;;5097339;28;20028;-72
2021/11/21 08:33:22;;;;;;;12.75;5.85;;;7.50;99.90;;;;;;5096300;28;20085;-73
2021/11/21 08:35:50;;;;;;;11.88;7.05;;;7.50;99.90;;;;;;5097110;28;20051;-69
2021/11/21 08:38:18;;;;;;;14.20;7.65;;;7.60;99.90;;;;;;5097567;28;20320;-69
2021/11/21 08:40:46;;;;;;;13.15;7.57;;;7.60;99.90;;;;;;5097026;28;20336;-69
2021/11/21 08:43:15;;;;;;;11.15;6.65;;;7.70;99.90;;;;;;5098282;28;20473;-68
2021/11/21 08:45:43;;;;;;;12.15;6.72;;;7.70;99.90;;;;;;5098080;28;20020;-69
2021/11/21 08:48:10;;;;;;;13.90;6.93;;;7.70;99.90;;;;;;5098491;28;20024;-69
2021/11/21 08:50:38;;;;;;;13.57;6.97;;;7.70;99.90;;;;;;5098167;28;20078;-69
2021/11/21 08:53:12;;;;;;;11.00;6.70;;;7.80;99.90;;;;;;5098201;28;20024;-86
2021/11/21 08:55:40;;;;;;;10.30;5.90;;;7.80;99.90;;;;;;5097561;28;20051;-69
2021/11/21 08:58:09;;;;;;;11.98;5.95;;;7.80;99.90;;;;;;5097490;28;20043;-69
2021/11/21 09:00:36;;;;;;;10.23;5.25;;;7.80;99.90;;;;;;5096912;28;20097;-69
2021/11/21 09:03:04;;;;;;;10.95;5.93;;;7.80;99.90;;;;;;5097021;28;20028;-71
2021/11/21 09:05:32;;;;;;;10.38;5.82;;;7.80;99.90;;;;;;5096794;28;20024;-71
2021/11/21 09:07:59;;;;;;;11.75;6.35;;;7.80;99.90;;;;;;5097387;28;20024;-71
2021/11/21 09:10:27;;;;;;;14.75;6.93;;;7.80;99.90;;;;;;5096725;28;20028;-71
2021/11/21 09:12:55;;;;;;;11.05;5.82;;;7.90;99.90;;;;;;5096668;28;20020;-72
2021/11/21 09:15:22;;;;;;;11.93;6.35;;;7.90;99.90;;;;;;5096678;28;20027;-71
2021/11/21 09:17:53;;;;;;;9.45;5.63;;;7.90;99.90;;;;;;5096086;28;20020;-71
2021/11/21 09:20:26;;;;;;;10.80;5.93;;;7.90;99.90;;;;;;5096454;28;20108;-72
2021/11/21 09:22:54;;;;;;;13.10;6.55;;;7.90;99.90;;;;;;5098390;28;20308;-70
2021/11/21 09:25:23;;;;;;;14.25;7.32;;;7.90;99.90;;;;;;5097597;28;20031;-71
2021/11/21 09:27:51;;;;;;;10.75;6.35;;;8.00;99.90;;;;;;5097440;28;20024;-79
2021/11/21 09:30:19;;;;;;;13.60;6.50;;;8.00;99.90;;;;;;5097497;28;20020;-71
2021/11/21 09:32:47;;;;;;;11.57;5.93;;;8.10;99.90;;;;;;5097664;28;20369;-70
2021/11/21 09:35:15;;;;;;;12.52;6.40;;;8.10;99.90;;;;;;5097169;28;20096;-70
2021/11/21 09:37:43;;;;;;;12.82;6.90;;;8.20;99.90;;;;;;5096948;28;20017;-71
2021/11/21 09:40:13;;;;;;;9.68;5.50;;;8.20;99.90;;;;;;5096519;28;20024;-70
2021/11/21 09:42:43;;;;;;;10.05;6.10;;;8.20;99.90;;;;;;5096694;28;20109;-71
2021/11/21 09:45:12;;;;;;;10.73;5.95;;;8.20;99.90;;;;;;5095299;28;20020;-71
2021/11/21 09:47:51;;;;;;;10.82;5.18;;;8.20;99.90;;;;;;5096979;28;20114;-71
2021/11/21 09:50:20;;;;;;;9.55;5.90;;;8.30;99.90;;;;;;5096494;28;20028;-71
2021/11/21 09:52:50;;;;;;;12.68;5.75;;;8.30;99.90;;;;;;5096334;28;20091;-71
2021/11/21 09:55:18;;;;;;;9.93;5.28;;;8.50;99.90;;;;;;5095915;28;20423;-71
2021/11/21 09:57:47;;;;;;;9.88;5.85;;;8.50;99.90;;;;;;5097742;28;20032;-71
2021/11/21 10:00:23;;;;;;;9.30;4.78;;;8.60;99.90;;;;;;5097148;28;20024;-71
2021/11/21 10:03:10;;;;;;;8.02;4.82;;;8.60;99.90;;;;;;5095990;28;20108;-69
2021/11/21 10:05:47;;;;;;;8.48;4.75;;;8.60;99.90;;;;;;5099209;28;20032;-71
2021/11/21 10:08:24;;;;;;;6.70;4.22;;;8.60;99.90;;;;;;5101518;28;20043;-70
2021/11/21 10:11:14;;;;;;;9.07;4.68;;;8.60;99.90;;;;;;5100294;28;20051;-70
2021/11/21 10:13:45;;;;;;;10.23;4.90;;;8.60;99.90;;;;;;5100677;28;20046;-70
2021/11/21 10:16:19;;;;;;;9.18;4.07;;;8.60;99.90;;;;;;5099799;28;20028;-70
2021/11/21 10:18:51;;;;;;;8.15;4.55;;;8.50;99.90;;;;;;5100488;28;20016;-70
2021/11/21 10:21:34;;;;;;;11.38;5.65;;;8.50;99.90;;;;;;5099814;28;20016;-70
2021/11/21 10:24:27;;;;;;;10.05;5.15;;;8.40;99.90;;;;;;5100507;28;20031;-70
2021/11/21 10:27:08;;;;;;;9.30;4.60;;;8.40;99.90;;;;;;5099665;28;20051;-70
2021/11/21 10:29:42;;;;;;;10.90;4.97;;;8.40;99.90;;;;;;5100225;28;20024;-70
2021/11/21 10:32:19;;;;;;;8.98;4.25;;;8.40;99.90;;;;;;5100800;28;20416;-70
2021/11/21 10:34:58;;;;;;;9.90;4.47;;;8.50;99.90;;;;;;5101207;28;20031;-70
2021/11/21 10:37:38;;;;;;;8.52;4.40;;;8.40;99.90;;;;;;5100693;28;20032;-70
2021/11/21 10:40:09;;;;;;;9.88;4.10;;;8.40;99.90;;;;;;5100689;28;20020;-70
2021/11/21 10:42:42;;;;;;;8.30;5.07;;;8.40;99.90;;;;;;5100343;28;20020;-70
2021/11/21 10:45:14;;;;;;;7.53;4.18;;;8.40;99.90;;;;;;5100730;28;20020;-69
2021/11/21 10:47:53;;;;;;;7.90;3.85;;;8.40;99.90;;;;;;5099824;28;20040;-70
2021/11/21 10:50:35;;;;;;;6.80;3.55;;;8.40;99.90;;;;;;5099565;28;20023;-70
2021/11/21 10:53:12;;;;;;;6.55;3.50;;;8.40;99.90;;;;;;5099196;28;20073;-71
2021/11/21 10:55:41;;;;;;;5.95;3.20;;;8.50;99.90;;;;;;5098807;28;20036;-71
2021/11/21 10:58:20;;;;;;;9.15;3.33;;;8.60;99.90;;;;;;5099100;28;20301;-71
2021/11/21 11:00:59;;;;;;;7.25;3.15;;;8.70;99.90;;;;;;5099273;28;20411;-69
2021/11/21 11:03:27;;;;;;;7.93;3.47;;;8.80;99.90;;;;;;5099726;28;20101;-68
2021/11/21 11:05:55;;;;;;;10.10;3.47;;;8.90;99.90;;;;;;5098970;28;20020;-70
2021/11/21 11:08:29;;;;;;;8.20;3.17;;;9.00;99.90;;;;;;5099979;28;20319;-71
2021/11/21 11:10:59;;;;;;;9.23;4.75;;;9.00;99.90;;;;;;5100339;28;20031;-71
2021/11/21 11:13:30;;;;;;;8.60;4.20;;;9.00;99.90;;;;;;5099768;28;20017;-71
2021/11/21 11:15:59;;;;;;;10.85;4.75;;;9.00;99.90;;;;;;5099669;28;20055;-71
2021/11/21 11:18:32;;;;;;;10.50;4.43;;;9.00;99.90;;;;;;5099816;28;20024;-71
2021/11/21 11:21:00;;;;;;;10.73;4.95;;;9.00;99.90;;;;;;5100085;28;20051;-71
2021/11/21 11:23:29;;;;;;;8.88;4.85;;;9.00;99.90;;;;;;5098953;28;20020;-71
2021/11/21 11:26:06;;;;;;;10.07;3.95;;;8.90;99.90;;;;;;5099125;28;20095;-71
2021/11/21 11:28:40;;;;;;;7.93;3.75;;;9.00;99.90;;;;;;5098594;28;20043;-71
2021/11/21 11:31:30;;;;;;;11.50;4.07;;;9.00;99.90;;;;;;5099023;28;20028;-71
2021/11/21 11:34:01;;;;;;;10.27;4.22;;;9.10;99.90;;;;;;5098765;28;20028;-71
2021/11/21 11:36:30;;;;;;;11.35;3.95;;;9.20;99.90;;;;;;5098292;28;20028;-71
2021/11/21 11:39:14;;;;;;;16.67;3.88;;;9.20;99.90;;;;;;5099019;28;20077;-71
2021/11/21 11:41:42;;;;;;;9.90;5.25;;;9.30;99.90;;;;;;5098484;28;20016;-71
2021/11/21 11:44:10;;;;;;;10.55;4.82;;;9.30;99.90;;;;;;5099351;28;20024;-71
2021/11/21 11:46:41;;;;;;;11.02;3.55;;;9.40;99.90;;;;;;5099065;28;20035;-71
2021/11/21 11:49:10;;;;;;;13.82;4.68;;;9.50;99.90;;;;;;5099074;28;20047;-71
2021/11/21 11:51:38;;;;;;;8.65;2.83;;;9.50;99.90;;;;;;5099170;28;20078;-71
2021/11/21 11:54:15;;;;;;;12.25;3.00;;;9.60;99.90;;;;;;5099392;28;20043;-71
2021/11/21 11:56:48;;;;;;;11.05;3.58;;;9.70;99.90;;;;;;5099396;28;20032;-71
2021/11/21 11:59:38;;;;;;;8.82;3.47;;;9.70;99.90;;;;;;5098671;28;20016;-70
2021/11/21 12:02:32;;;;;;;11.35;3.20;;;9.70;99.90;;;;;;5098537;28;20057;-72
2021/11/21 12:05:03;;;;;;;11.05;4.45;;;9.70;99.90;;;;;;5097897;28;20485;-71
2021/11/21 12:07:34;;;;;;;8.40;4.13;;;9.70;99.90;;;;;;5098329;28;20064;-71
2021/11/21 12:10:15;;;;;;;11.95;4.55;;;9.60;99.90;;;;;;5098291;28;20016;-71
2021/11/21 12:13:10;;;;;;;10.77;4.15;;;9.50;99.90;;;;;;5097611;28;20028;-71
2021/11/21 12:15:50;;;;;;;9.43;3.65;;;9.40;99.90;;;;;;5096386;28;20054;-71
2021/11/21 12:18:20;;;;;;;12.50;3.90;;;9.20;99.90;;;;;;5098133;28;20358;-71
2021/11/21 12:20:58;;;;;;;11.93;4.05;;;9.10;99.90;;;;;;5098231;28;20025;-71
2021/11/21 12:23:55;;;;;;;4.68;2.20;;;9.00;99.90;;;;;;5098948;28;20397;-71
2021/11/21 12:26:34;;;;;;;15.02;3.47;;;8.90;99.90;;;;;;5081838;28;20032;-71
2021/11/21 12:29:10;;;;;;;9.88;3.05;;;8.90;99.90;;;;;;5098722;28;20032;-71
2021/11/21 12:31:46;;;;;;;6.43;2.73;;;8.90;99.90;;;;;;5098338;28;20028;-71
2021/11/21 12:34:37;;;;;;;12.25;2.75;;;8.90;99.90;;;;;;5098236;28;20027;-71
2021/11/21 12:37:33;;;;;;;10.95;3.22;;;8.90;99.90;;;;;;5097670;28;20024;-71
2021/11/21 12:40:12;;;;;;;12.25;3.03;;;9.00;99.90;;;;;;5097996;28;20020;-71
2021/11/21 12:42:41;;;;;;;10.65;2.22;;;9.10;99.90;;;;;;5097175;28;20027;-71
2021/11/21 12:45:19;;;;;;;10.15;2.15;;;9.20;99.90;;;;;;5097187;28;20016;-71
2021/11/21 12:47:52;;;;;;;7.88;3.15;;;9.20;99.90;;;;;;5096035;28;20016;-71
2021/11/21 12:50:28;;;;;;;7.40;2.08;;;9.20;99.90;;;;;;5097110;28;20338;-71
2021/11/21 12:53:05;;;;;;;10.23;3.50;;;9.20;99.90;;;;;;5095987;28;20107;-71
2021/11/21 12:55:36;;;;;;;7.78;2.67;;;9.20;99.90;;;;;;5096658;28;20055;-71
2021/11/21 12:58:07;;;;;;;7.72;3.17;;;9.10;99.90;;;;;;5097699;28;20348;-71